Time;durP1;ratioP1;P1;durP2;ratioP2;P2;SDS_P1;SDS_P2;PMS_P1;PMS_P2;Temp;Humidity;BMP_temperature;BMP_pressure;BME280_temperature;BME280_humidity;BME280_pressure;Samples;Min_cycle;Max_cycle;Signal;HPM_P1;HPM_P2
2022/10/22 00:00:38;;;;;;;3.42;2.20;;;;;;;22.76;39.37;101959.06;4196754;28;20117;-75
2022/10/22 00:02:43;;;;;;;2.40;1.80;;;;;;;22.79;39.61;101952.13;4196732;28;20109;-74
2022/10/22 00:04:46;;;;;;;3.80;2.00;;;;;;;22.79;39.39;101969.69;4196828;28;20108;-75
2022/10/22 00:06:47;;;;;;;3.25;2.58;;;;;;;22.64;39.44;101947.28;4192803;28;20082;-73
2022/10/22 00:08:54;;;;;;;3.00;1.98;;;;;;;22.78;39.55;101967.19;4179865;28;20037;-75
2022/10/22 00:10:56;;;;;;;2.25;1.90;;;;;;;22.77;39.67;101966.34;4196715;28;20476;-75
2022/10/22 00:12:57;;;;;;;3.53;2.35;;;;;;;22.78;39.48;101965.22;4195926;28;20037;-77
2022/10/22 00:14:58;;;;;;;2.40;2.00;;;;;;;22.69;39.42;101952.91;4197363;28;20095;-73
2022/10/22 00:16:59;;;;;;;2.55;1.73;;;;;;;22.78;39.52;101968.03;4194894;28;20040;-73
2022/10/22 00:19:01;;;;;;;3.75;2.10;;;;;;;22.55;39.58;101933.00;4196030;28;20044;-75
2022/10/22 00:21:02;;;;;;;2.42;1.90;;;;;;;22.72;39.30;101959.88;4194118;28;20087;-74
2022/10/22 00:23:06;;;;;;;3.75;2.45;;;;;;;22.76;39.63;101975.81;4192948;28;20048;-73
2022/10/22 00:25:08;;;;;;;2.38;2.00;;;;;;;22.75;39.71;101973.28;4187878;28;20045;-75
2022/10/22 00:27:11;;;;;;;3.22;2.47;;;;;;;22.74;39.68;101978.03;4205028;28;20036;-73
2022/10/22 00:29:12;;;;;;;2.88;1.90;;;;;;;22.13;39.33;101882.75;4203566;28;20445;-74
2022/10/22 00:31:14;;;;;;;3.22;2.08;;;;;;;22.72;39.65;101977.44;4196258;28;20037;-75
2022/10/22 00:33:18;;;;;;;2.35;1.83;;;;;;;22.76;39.53;101974.97;4196435;28;20044;-75
2022/10/22 00:35:19;;;;;;;4.68;1.88;;;;;;;22.54;39.43;101953.63;4194754;28;20040;-75
2022/10/22 00:37:21;;;;;;;4.45;2.10;;;;;;;22.78;39.47;101983.94;4195174;28;20090;-73
2022/10/22 00:39:24;;;;;;;4.50;2.33;;;;;;;22.76;39.43;101995.34;4196089;28;20528;-75
2022/10/22 00:41:25;;;;;;;3.20;1.92;;;;;;;22.74;39.62;101986.41;4198073;28;20028;-74
2022/10/22 00:43:29;;;;;;;2.83;1.98;;;;;;;22.58;39.71;102013.34;4197580;28;20117;-74
2022/10/22 00:45:30;;;;;;;3.40;1.67;;;;;;;22.75;39.68;101995.63;4194490;28;20036;-75
2022/10/22 00:47:36;;;;;;;4.10;2.25;;;;;;;22.61;39.55;101967.34;4196314;28;20270;-74
2022/10/22 00:49:38;;;;;;;4.70;2.15;;;;;;;22.59;39.49;101969.56;4193112;28;20052;-76
2022/10/22 00:51:39;;;;;;;3.70;1.95;;;;;;;22.76;39.72;102008.44;4190653;28;20101;-76
2022/10/22 00:53:46;;;;;;;6.25;2.40;;;;;;;22.76;39.68;102003.72;4187009;28;20041;-75
2022/10/22 00:55:54;;;;;;;3.70;2.30;;;;;;;22.61;39.67;101984.06;4180720;28;20075;-76
2022/10/22 00:58:00;;;;;;;3.03;1.90;;;;;;;22.75;39.65;102018.78;4186550;28;20040;-76
2022/10/22 01:00:03;;;;;;;5.30;2.13;;;;;;;22.76;39.96;102011.25;4194513;28;20105;-75
2022/10/22 01:02:05;;;;;;;4.38;2.35;;;;;;;22.78;39.85;102017.41;4184515;28;20091;-74
2022/10/22 01:04:06;;;;;;;4.60;2.42;;;;;;;22.64;40.06;102003.09;4193544;28;20044;-74
2022/10/22 01:06:11;;;;;;;5.20;2.20;;;;;;;22.59;40.19;101989.09;4189579;28;20048;-73
2022/10/22 01:08:35;;;;;;;39.83;4.45;;;;;;;22.75;40.14;102021.56;4192467;28;20041;-74
2022/10/22 01:10:51;;;;;;;17.25;2.40;;;;;;;22.76;40.22;102022.41;4192608;28;20460;-75
2022/10/22 01:13:11;;;;;;;10.77;3.42;;;;;;;22.76;40.12;102028.81;4195910;28;20040;-75
2022/10/22 01:15:24;;;;;;;11.70;2.83;;;;;;;22.79;39.89;102031.09;4199323;28;20077;-75
2022/10/22 01:17:55;;;;;;;6.53;2.15;;;;;;;22.77;40.04;102044.47;4191000;28;20032;-65
2022/10/22 01:20:22;;;;;;;7.30;2.72;;;;;;;22.78;40.17;102031.38;4192224;28;20078;-63
2022/10/22 01:22:33;;;;;;;8.45;2.38;;;;;;;22.81;39.81;102034.44;4196016;28;20033;-70
2022/10/22 01:24:52;;;;;;;7.78;2.17;;;;;;;22.81;39.95;102041.97;4193135;28;20106;-62
2022/10/22 01:27:06;;;;;;;13.05;2.60;;;;;;;22.82;40.18;102043.69;4196969;28;20094;-63
2022/10/22 01:29:23;;;;;;;4.30;2.67;;;;;;;22.80;39.84;102046.72;4196692;28;20036;-63
2022/10/22 01:31:34;;;;;;;8.02;2.60;;;;;;;22.79;39.96;102053.41;4196717;28;20048;-63
2022/10/22 01:33:36;;;;;;;7.60;2.50;;;;;;;22.70;40.11;102038.28;4195830;28;20105;-63
2022/10/22 01:35:44;;;;;;;12.05;3.03;;;;;;;22.78;39.93;102057.31;4196628;28;20044;-63
2022/10/22 01:37:52;;;;;;;6.97;2.53;;;;;;;22.79;39.77;102059.00;4199775;28;20040;-63
2022/10/22 01:39:55;;;;;;;7.53;2.30;;;;;;;22.80;39.76;102055.09;4199641;28;20094;-63
2022/10/22 01:41:57;;;;;;;7.88;2.58;;;;;;;22.81;40.04;102056.75;4199921;28;20059;-63
2022/10/22 01:43:58;;;;;;;9.35;2.97;;;;;;;22.81;39.95;102064.31;4199647;28;20044;-63
2022/10/22 01:46:03;;;;;;;12.98;2.60;;;;;;;22.76;39.94;102053.94;4199014;28;20102;-63
2022/10/22 01:48:24;;;;;;;10.23;2.67;;;;;;;22.80;40.12;102059.84;4199872;28;20090;-63
2022/10/22 01:50:38;;;;;;;7.10;2.78;;;;;;;22.81;39.88;102061.50;4199805;28;20097;-63
2022/10/22 01:53:16;;;;;;;7.25;2.22;;;;;;;22.80;39.91;102060.66;4199882;28;20051;-63
2022/10/22 01:55:56;;;;;;;5.22;2.00;;;;;;;22.81;39.76;102072.66;4199620;28;20032;-63
2022/10/22 01:58:19;;;;;;;7.75;2.78;;;;;;;22.72;39.77;102050.00;4164395;28;20029;-63
2022/10/22 02:00:20;;;;;;;5.72;2.60;;;;;;;22.84;39.81;102073.00;4190534;28;20434;-64
2022/10/22 02:02:33;;;;;;;8.23;2.78;;;;;;;22.85;39.60;102076.63;4199508;28;20045;-63
2022/10/22 02:05:09;;;;;;;7.80;2.47;;;;;;;22.83;39.87;102082.47;4199560;28;20098;-64
2022/10/22 02:07:15;;;;;;;7.65;2.47;;;;;;;22.87;39.69;102080.00;4199644;28;20040;-63
2022/10/22 02:09:21;;;;;;;7.38;2.00;;;;;;;22.84;39.61;102083.31;4198405;28;20475;-63
2022/10/22 02:11:22;;;;;;;6.32;2.40;;;;;;;22.87;39.59;102082.78;4199678;28;20113;-63
2022/10/22 02:13:58;;;;;;;10.07;2.63;;;;;;;22.81;39.74;102078.25;4199636;28;20041;-64
2022/10/22 02:16:02;;;;;;;4.20;2.28;;;;;;;22.88;39.84;102084.47;4196312;28;20102;-63
2022/10/22 02:18:07;;;;;;;6.60;2.50;;;;;;;22.69;39.65;102063.66;4199549;28;20089;-63
2022/10/22 02:20:17;;;;;;;4.93;2.58;;;;;;;22.87;39.69;102098.69;4199531;28;20054;-63
2022/10/22 02:22:19;;;;;;;6.60;2.58;;;;;;;22.87;39.55;102099.53;4199389;28;20045;-64
2022/10/22 02:24:21;;;;;;;8.43;2.67;;;;;;;22.87;39.70;102107.06;4199102;28;20098;-63
2022/10/22 02:26:40;;;;;;;5.47;2.40;;;;;;;22.85;39.96;102107.31;4198684;28;20044;-63
2022/10/22 02:28:51;;;;;;;5.53;2.53;;;;;;;22.87;39.95;102107.06;4199014;28;20033;-63
2022/10/22 02:31:07;;;;;;;4.00;2.30;;;;;;;22.86;39.89;102114.56;4198573;28;20077;-63
2022/10/22 02:33:22;;;;;;;4.50;2.45;;;;;;;22.87;39.50;102121.88;4198827;28;20044;-64
2022/10/22 02:35:28;;;;;;;4.78;2.20;;;;;;;22.83;39.89;102109.53;4197412;28;20036;-63
2022/10/22 02:37:29;;;;;;;3.95;2.35;;;;;;;22.88;39.87;102117.13;4198847;28;20066;-63
2022/10/22 02:39:32;;;;;;;5.13;2.15;;;;;;;22.88;39.86;102111.53;4198469;28;20040;-63
2022/10/22 02:41:34;;;;;;;4.30;2.00;;;;;;;22.88;39.65;102122.69;4198788;28;20086;-63
2022/10/22 02:43:44;;;;;;;5.28;2.45;;;;;;;22.65;39.60;102082.88;4199027;28;20040;-63
2022/10/22 02:45:46;;;;;;;5.40;2.50;;;;;;;22.87;39.40;102121.88;4198558;28;20033;-63
2022/10/22 02:47:47;;;;;;;4.70;2.42;;;;;;;22.66;39.70;102087.34;4198488;28;20098;-63
2022/10/22 02:49:48;;;;;;;4.63;2.13;;;;;;;22.86;39.71;102113.75;4198542;28;20438;-64
2022/10/22 02:51:56;;;;;;;3.10;2.20;;;;;;;22.73;39.58;102099.13;4199058;28;20040;-63
2022/10/22 02:53:57;;;;;;;5.78;2.20;;;;;;;22.78;39.86;102113.13;4198587;28;20040;-64
2022/10/22 02:56:02;;;;;;;5.85;2.42;;;;;;;22.83;39.65;102115.97;4198645;28;20106;-63
2022/10/22 02:58:09;;;;;;;5.82;2.20;;;;;;;22.82;39.66;102105.91;4197671;28;20033;-63
2022/10/22 03:00:14;;;;;;;3.63;2.30;;;;;;;22.75;39.65;102102.50;4198605;28;20070;-64
2022/10/22 03:02:15;;;;;;;3.72;2.00;;;;;;;22.84;39.64;102114.84;4198210;28;20102;-63
2022/10/22 03:04:17;;;;;;;3.63;1.98;;;;;;;22.80;39.61;102105.31;4198490;28;20106;-63
2022/10/22 03:06:24;;;;;;;3.85;2.30;;;;;;;22.84;39.65;102116.81;4198443;28;20044;-63
2022/10/22 03:08:26;;;;;;;6.05;2.50;;;;;;;22.64;39.82;102078.41;4198443;28;20044;-63
2022/10/22 03:10:27;;;;;;;7.35;2.10;;;;;;;22.82;39.72;102122.66;4198602;28;20085;-62
2022/10/22 03:12:28;;;;;;;3.47;2.20;;;;;;;22.83;39.73;102121.53;4198714;28;20098;-64
2022/10/22 03:14:29;;;;;;;6.68;2.40;;;;;;;22.81;39.71;102123.75;4198473;28;20089;-64
2022/10/22 03:16:31;;;;;;;3.03;2.28;;;;;;;22.80;39.70;102122.06;4198486;28;20028;-63
2022/10/22 03:18:35;;;;;;;7.38;2.35;;;;;;;22.79;39.84;102125.97;4198101;28;20075;-63
2022/10/22 03:20:36;;;;;;;4.97;1.85;;;;;;;22.79;39.83;102120.38;4198659;28;20045;-63
2022/10/22 03:22:43;;;;;;;4.07;2.30;;;;;;;22.80;39.82;102132.38;4198572;28;20106;-63
2022/10/22 03:24:49;;;;;;;3.00;2.20;;;;;;;22.80;39.85;102133.22;4198163;28;20036;-63
2022/10/22 03:26:57;;;;;;;3.83;1.92;;;;;;;22.80;39.97;102130.44;4198508;28;20070;-64
2022/10/22 03:29:01;;;;;;;4.55;2.10;;;;;;;22.76;39.88;102126.50;4198370;28;20143;-62
2022/10/22 03:31:03;;;;;;;3.90;2.38;;;;;;;22.75;39.75;102122.03;4198328;28;20048;-62
2022/10/22 03:33:04;;;;;;;5.93;2.20;;;;;;;22.78;39.92;102129.03;4198382;28;20086;-63
2022/10/22 03:35:05;;;;;;;3.63;2.05;;;;;;;22.79;39.71;102136.28;4197967;28;20094;-63
2022/10/22 03:37:07;;;;;;;3.38;2.13;;;;;;;22.67;39.53;102111.34;4197982;28;20199;-63
2022/10/22 03:39:10;;;;;;;3.83;2.10;;;;;;;22.78;39.87;102129.03;4198272;28;20037;-63
2022/10/22 03:41:12;;;;;;;5.07;2.08;;;;;;;22.76;39.86;102132.06;4197606;28;20044;-63
2022/10/22 03:43:14;;;;;;;6.25;2.22;;;;;;;22.77;39.80;102122.63;4196593;28;20044;-63
2022/10/22 03:45:15;;;;;;;4.30;2.40;;;;;;;22.54;40.04;102081.09;4197669;28;20048;-63
2022/10/22 03:47:25;;;;;;;2.78;1.98;;;;;;;22.75;40.01;102122.03;4197487;28;20044;-63
2022/10/22 03:49:26;;;;;;;2.50;2.17;;;;;;;22.75;39.70;102119.22;4197882;28;20041;-63
2022/10/22 03:51:28;;;;;;;3.10;2.10;;;;;;;22.75;39.83;102119.22;4197480;28;20052;-63
2022/10/22 03:53:29;;;;;;;5.45;2.45;;;;;;;22.77;39.69;102121.75;4181268;28;20096;-63
2022/10/22 03:55:30;;;;;;;2.75;2.30;;;;;;;22.76;39.72;102120.91;4181380;28;20033;-64
2022/10/22 03:57:32;;;;;;;3.75;2.47;;;;;;;22.75;39.89;102113.66;4181111;28;20037;-63
2022/10/22 03:59:38;;;;;;;4.15;2.40;;;;;;;22.73;40.05;102120.63;4181418;28;20033;-63
2022/10/22 04:01:40;;;;;;;2.75;2.25;;;;;;;22.71;39.83;102112.50;4181381;28;20094;-63
2022/10/22 04:03:44;;;;;;;3.38;2.13;;;;;;;22.75;39.70;102121.19;4181358;28;20045;-63
2022/10/22 04:05:45;;;;;;;2.78;1.98;;;;;;;22.67;39.71;102110.50;4181012;28;20431;-63
2022/10/22 04:07:46;;;;;;;5.25;2.33;;;;;;;22.76;39.88;102118.13;4180698;28;20118;-63
2022/10/22 04:09:50;;;;;;;2.88;2.20;;;;;;;22.77;39.70;102119.81;4185068;28;20110;-63
2022/10/22 04:11:51;;;;;;;3.00;2.03;;;;;;;22.77;39.83;102116.16;4197545;28;20041;-63
2022/10/22 04:13:53;;;;;;;4.40;1.98;;;;;;;22.77;39.77;102133.78;4197850;28;20090;-62
2022/10/22 04:15:54;;;;;;;2.97;1.90;;;;;;;22.75;39.96;102118.41;4197500;28;20090;-63
2022/10/22 04:17:55;;;;;;;5.53;2.00;;;;;;;22.76;39.71;102120.91;4197893;28;20028;-63
2022/10/22 04:19:57;;;;;;;2.70;2.20;;;;;;;22.72;39.64;102122.53;4197521;28;20036;-63
2022/10/22 04:21:59;;;;;;;3.28;2.10;;;;;;;22.74;39.71;102123.13;4197815;28;20094;-63
2022/10/22 04:24:01;;;;;;;3.55;2.33;;;;;;;22.74;39.59;102123.13;4197743;28;20041;-64
2022/10/22 04:26:06;;;;;;;3.53;2.30;;;;;;;22.55;39.58;102107.91;4197152;28;20040;-63
2022/10/22 04:28:09;;;;;;;2.55;2.10;;;;;;;22.73;39.82;102149.38;4197508;28;20094;-63
2022/10/22 04:30:15;;;;;;;7.85;2.55;;;;;;;22.74;39.68;102139.88;4197402;28;20082;-63
2022/10/22 04:32:17;;;;;;;4.95;2.28;;;;;;;22.74;39.94;102139.88;4197467;28;20113;-63
2022/10/22 04:34:18;;;;;;;3.10;1.98;;;;;;;22.74;39.74;102144.63;4197567;28;20093;-63
2022/10/22 04:36:20;;;;;;;3.08;2.00;;;;;;;22.73;39.75;102132.63;4197180;28;20089;-63
2022/10/22 04:38:26;;;;;;;3.40;2.00;;;;;;;22.73;39.59;102138.19;4197446;28;20110;-63
2022/10/22 04:40:27;;;;;;;5.10;1.98;;;;;;;22.74;39.81;102139.03;4197442;28;20482;-63
2022/10/22 04:42:29;;;;;;;4.05;2.38;;;;;;;22.73;39.83;102149.38;4197594;28;20086;-63
2022/10/22 04:44:30;;;;;;;3.45;2.30;;;;;;;22.15;39.56;102052.53;4197533;28;20098;-63
2022/10/22 04:46:33;;;;;;;3.35;2.35;;;;;;;22.73;39.60;102154.09;4196444;28;20041;-63
2022/10/22 04:48:35;;;;;;;4.88;2.38;;;;;;;22.72;39.88;102150.44;4197369;28;20049;-63
2022/10/22 04:50:37;;;;;;;3.42;2.20;;;;;;;22.69;39.79;102148.22;4197491;28;20037;-64
2022/10/22 04:52:41;;;;;;;3.30;1.95;;;;;;;22.71;39.60;102151.56;4197433;28;20044;-63
2022/10/22 04:54:45;;;;;;;3.17;2.47;;;;;;;22.50;39.70;102111.47;4197070;28;20078;-63
2022/10/22 04:56:46;;;;;;;3.42;1.83;;;;;;;22.73;39.66;102149.38;4197063;28;20044;-63
2022/10/22 04:58:50;;;;;;;2.50;1.95;;;;;;;22.68;39.85;102140.94;4197115;28;20044;-63
2022/10/22 05:00:51;;;;;;;4.22;2.10;;;;;;;22.73;39.72;102154.94;4197643;28;20036;-63
2022/10/22 05:02:58;;;;;;;2.53;2.03;;;;;;;22.73;39.69;102154.94;4197427;28;20106;-63
2022/10/22 05:04:59;;;;;;;3.22;2.20;;;;;;;22.70;39.68;102149.88;4196939;28;20044;-64
2022/10/22 05:07:01;;;;;;;3.95;2.30;;;;;;;22.60;40.03;102141.41;4196943;28;20658;-63
2022/10/22 05:09:13;;;;;;;2.95;2.22;;;;;;;22.67;39.70;102150.41;4197502;28;20414;-64
2022/10/22 05:11:18;;;;;;;3.22;2.38;;;;;;;22.63;39.66;102142.81;4198940;28;20476;-63
2022/10/22 05:13:19;;;;;;;2.50;2.00;;;;;;;22.69;40.10;102158.53;4199050;28;20037;-63
2022/10/22 05:15:23;;;;;;;4.10;2.20;;;;;;;22.66;40.08;102145.09;4200406;28;20082;-63
2022/10/22 05:17:24;;;;;;;5.05;2.85;;;;;;;22.66;40.00;102142.31;4200051;28;20044;-63
2022/10/22 05:19:28;;;;;;;5.68;2.50;;;;;;;22.68;39.77;102159.59;4200546;28;20154;-63
2022/10/22 05:21:30;;;;;;;2.53;2.13;;;;;;;22.71;39.86;102145.97;4200166;28;20098;-63
2022/10/22 05:23:34;;;;;;;3.00;2.20;;;;;;;22.69;39.69;102137.03;4200323;28;20094;-63
2022/10/22 05:25:38;;;;;;;3.50;2.45;;;;;;;22.67;39.76;102143.97;4199341;28;20040;-62
2022/10/22 05:27:42;;;;;;;3.47;2.20;;;;;;;22.58;39.71;102130.50;4200123;28;20101;-62
2022/10/22 05:29:43;;;;;;;3.72;2.20;;;;;;;22.69;39.72;102145.41;4201722;28;20041;-62
2022/10/22 05:31:45;;;;;;;3.45;2.28;;;;;;;22.68;39.66;102149.31;4216969;28;20040;-62
2022/10/22 05:33:46;;;;;;;2.78;2.28;;;;;;;22.68;39.92;102156.81;4203338;28;20032;-62
2022/10/22 05:35:49;;;;;;;3.00;2.20;;;;;;;22.49;39.81;102128.44;4199576;28;20098;-62
2022/10/22 05:37:53;;;;;;;3.50;2.47;;;;;;;22.65;39.72;102172.16;4199041;28;20086;-62
2022/10/22 05:39:57;;;;;;;5.80;1.88;;;;;;;22.66;40.05;102161.84;4197827;28;20044;-62
2022/10/22 05:41:58;;;;;;;6.50;2.63;;;;;;;22.67;39.70;102166.31;4197791;28;20032;-62
2022/10/22 05:44:00;;;;;;;2.88;2.30;;;;;;;22.65;40.13;102169.38;4198109;28;20098;-62
2022/10/22 05:46:09;;;;;;;3.55;2.10;;;;;;;22.57;39.83;102150.31;4198977;28;20505;-61
2022/10/22 05:48:11;;;;;;;3.65;2.20;;;;;;;22.67;39.97;102166.31;4200283;28;20443;-62
2022/10/22 05:50:12;;;;;;;4.10;2.33;;;;;;;22.55;40.08;102141.38;4199694;28;20082;-62
2022/10/22 05:52:16;;;;;;;3.58;2.33;;;;;;;22.65;40.21;102163.78;4199969;28;20524;-62
2022/10/22 05:54:20;;;;;;;6.70;2.80;;;;;;;22.58;39.87;102143.59;4200194;28;20058;-61
2022/10/22 05:56:23;;;;;;;2.87;1.93;;;;;;;22.65;40.28;102162.94;4199602;28;20048;-61
2022/10/22 05:58:24;;;;;;;2.70;2.10;;;;;;;22.60;40.16;102155.38;4199610;28;20273;-59
2022/10/22 06:00:25;;;;;;;3.58;2.30;;;;;;;22.63;39.98;102165.97;4199949;28;20532;-61
2022/10/22 06:02:27;;;;;;;4.57;2.40;;;;;;;22.63;40.14;102165.97;4199452;28;20033;-61
2022/10/22 06:04:31;;;;;;;4.93;2.20;;;;;;;22.64;40.12;102170.47;4207292;28;20044;-61
2022/10/22 06:06:33;;;;;;;3.93;2.30;;;;;;;22.64;40.12;102166.84;4202785;28;20501;-61
2022/10/22 06:08:35;;;;;;;3.20;2.42;;;;;;;22.52;40.11;102153.88;4199120;28;20094;-61
2022/10/22 06:10:39;;;;;;;2.97;1.90;;;;;;;22.40;39.77;102136.44;4198263;28;20102;-61
2022/10/22 06:12:40;;;;;;;4.35;2.42;;;;;;;22.63;40.37;102165.13;4199609;28;20044;-62
2022/10/22 06:14:42;;;;;;;3.60;2.10;;;;;;;22.61;40.23;102165.41;4198858;28;20468;-61
2022/10/22 06:16:43;;;;;;;3.20;2.10;;;;;;;22.63;40.35;102171.56;4199304;28;20044;-62
2022/10/22 06:18:45;;;;;;;2.72;2.03;;;;;;;22.63;40.44;102165.97;4199159;28;20091;-62
2022/10/22 06:20:46;;;;;;;5.90;2.50;;;;;;;22.62;40.38;102164.31;4200629;28;20110;-61
2022/10/22 06:22:47;;;;;;;4.53;2.35;;;;;;;22.62;40.40;102169.03;4214734;28;20043;-62
2022/10/22 06:24:49;;;;;;;3.92;2.13;;;;;;;22.62;40.55;102169.03;4203791;28;20450;-61
2022/10/22 06:26:53;;;;;;;2.78;2.33;;;;;;;22.36;40.45;102126.94;4199644;28;20033;-61
2022/10/22 06:28:55;;;;;;;4.35;2.00;;;;;;;22.60;40.48;102169.31;4198827;28;20048;-61
2022/10/22 06:31:01;;;;;;;2.45;1.98;;;;;;;22.59;40.32;102164.84;4198470;28;20036;-61
2022/10/22 06:33:05;;;;;;;2.83;2.08;;;;;;;22.59;40.34;102170.44;4198820;28;20094;-61
2022/10/22 06:35:06;;;;;;;2.60;2.40;;;;;;;22.38;40.50;102129.47;4199135;28;20082;-61
2022/10/22 06:37:09;;;;;;;2.25;2.00;;;;;;;22.55;40.33;102155.31;4199364;28;20075;-61
2022/10/22 06:39:13;;;;;;;3.13;2.13;;;;;;;22.59;40.19;102173.22;4199796;28;20110;-61
2022/10/22 06:41:20;;;;;;;2.70;1.90;;;;;;;22.57;40.48;102170.66;4199254;28;20041;-61
2022/10/22 06:43:22;;;;;;;2.97;2.13;;;;;;;22.56;40.59;102165.38;4199197;28;20454;-61
2022/10/22 06:45:23;;;;;;;3.05;2.13;;;;;;;22.54;40.57;102156.41;4198538;28;20094;-61
2022/10/22 06:47:24;;;;;;;3.55;2.42;;;;;;;22.58;40.40;102160.34;4198600;28;20549;-61
2022/10/22 06:49:25;;;;;;;2.28;1.90;;;;;;;22.55;40.67;102158.94;4198722;28;20097;-61
2022/10/22 06:51:29;;;;;;;2.75;2.03;;;;;;;22.57;40.59;102164.25;4198647;28;20074;-62
2022/10/22 06:53:31;;;;;;;2.55;2.15;;;;;;;22.57;40.42;102162.31;4199155;28;20040;-62
2022/10/22 06:55:34;;;;;;;3.80;2.75;;;;;;;22.57;40.49;102155.88;4198174;28;20040;-61
2022/10/22 06:57:36;;;;;;;3.17;1.95;;;;;;;22.56;40.71;102165.38;4199337;28;20036;-63
2022/10/22 06:59:38;;;;;;;3.55;2.20;;;;;;;22.53;40.56;102160.31;4198530;28;20040;-61
2022/10/22 07:01:39;;;;;;;3.00;1.83;;;;;;;22.55;40.60;102164.53;4199061;28;20097;-61
2022/10/22 07:03:41;;;;;;;3.45;2.13;;;;;;;22.55;40.69;102153.38;4198169;28;20411;-61
2022/10/22 07:05:42;;;;;;;2.92;2.30;;;;;;;22.54;40.97;102162.84;4198411;28;20438;-61
2022/10/22 07:07:43;;;;;;;2.85;2.20;;;;;;;22.43;40.52;102149.03;4198992;28;20028;-62
2022/10/22 07:09:46;;;;;;;2.80;1.98;;;;;;;22.52;40.73;102151.09;4198796;28;20037;-62
2022/10/22 07:11:49;;;;;;;5.13;2.47;;;;;;;22.53;41.04;102165.88;4198586;28;20114;-62
2022/10/22 07:13:53;;;;;;;3.33;2.25;;;;;;;22.52;40.62;102153.88;4198059;28;20442;-62
2022/10/22 07:15:55;;;;;;;3.53;2.20;;;;;;;22.52;40.96;102153.03;4197529;28;20041;-61
2022/10/22 07:17:56;;;;;;;2.80;2.08;;;;;;;22.51;40.69;102148.56;4198777;28;20040;-63
2022/10/22 07:19:58;;;;;;;3.50;2.53;;;;;;;22.50;40.76;102139.38;4198546;28;20434;-62
2022/10/22 07:22:08;;;;;;;3.42;2.50;;;;;;;22.25;40.58;102098.09;4198193;28;20435;-62
2022/10/22 07:24:10;;;;;;;3.33;2.17;;;;;;;22.53;40.50;102143.56;4198332;28;20082;-62
2022/10/22 07:26:16;;;;;;;3.40;2.13;;;;;;;22.51;40.88;102146.63;4197387;28;20036;-62
2022/10/22 07:28:20;;;;;;;4.25;2.25;;;;;;;22.53;40.91;102146.34;4197629;28;20101;-61
2022/10/22 07:30:21;;;;;;;3.47;2.37;;;;;;;22.52;40.62;102141.88;4197873;28;20098;-62
2022/10/22 07:32:25;;;;;;;3.47;2.58;;;;;;;22.42;40.48;102125.88;4198315;28;20085;-61
2022/10/22 07:34:29;;;;;;;2.80;2.22;;;;;;;22.52;40.80;102151.09;4196960;28;20090;-61
2022/10/22 07:36:30;;;;;;;2.00;1.70;;;;;;;22.52;40.47;102147.47;4197757;28;20045;-61
2022/10/22 07:38:32;;;;;;;4.38;2.58;;;;;;;22.51;40.99;102145.78;4197671;28;20044;-62
2022/10/22 07:40:35;;;;;;;3.58;2.53;;;;;;;22.50;40.68;102144.09;4197984;28;20048;-61
2022/10/22 07:42:36;;;;;;;3.05;2.35;;;;;;;22.50;40.93;102150.53;4197425;28;20097;-62
2022/10/22 07:44:37;;;;;;;3.35;2.15;;;;;;;22.51;40.49;102148.56;4191842;28;20049;-61
2022/10/22 07:46:38;;;;;;;2.47;2.05;;;;;;;22.49;41.04;102150.78;4186508;28;20106;-62
2022/10/22 07:48:43;;;;;;;4.82;2.35;;;;;;;22.50;40.85;102155.28;4198096;28;20089;-61
2022/10/22 07:50:46;;;;;;;3.70;2.63;;;;;;;22.50;40.97;102155.28;4187268;28;20036;-61
2022/10/22 07:52:48;;;;;;;2.70;2.20;;;;;;;22.50;40.76;102150.53;4197538;28;20675;-62
2022/10/22 07:54:49;;;;;;;3.03;2.15;;;;;;;22.50;40.56;102149.69;4197504;28;20094;-62
2022/10/22 07:56:50;;;;;;;3.00;2.22;;;;;;;22.49;40.88;102150.78;4197818;28;20048;-62
2022/10/22 07:58:52;;;;;;;3.90;2.25;;;;;;;22.49;40.43;102153.56;4197789;28;20102;-61
2022/10/22 08:00:59;;;;;;;4.07;2.05;;;;;;;22.49;40.99;102153.56;4197571;28;20105;-61
2022/10/22 08:03:00;;;;;;;2.50;2.10;;;;;;;22.52;40.50;102155.84;4201349;28;20156;-61
2022/10/22 08:05:02;;;;;;;2.65;2.33;;;;;;;22.40;40.39;102133.66;4214562;28;20044;-62
2022/10/22 08:07:07;;;;;;;3.67;2.35;;;;;;;22.51;40.90;102156.94;4205554;28;20044;-61
2022/10/22 08:09:08;;;;;;;2.58;2.30;;;;;;;22.50;40.66;102158.06;4197840;28;20491;-61
2022/10/22 08:11:10;;;;;;;4.07;2.65;;;;;;;22.50;40.85;102155.28;4196426;28;20101;-61
2022/10/22 08:13:11;;;;;;;2.72;2.13;;;;;;;22.50;40.91;102163.63;4197616;28;20097;-61
2022/10/22 08:15:12;;;;;;;2.55;2.08;;;;;;;22.48;40.67;102161.09;4197431;28;20090;-62
2022/10/22 08:17:14;;;;;;;3.22;2.30;;;;;;;21.81;40.69;102041.56;4197290;28;20036;-62
2022/10/22 08:19:17;;;;;;;2.95;2.28;;;;;;;22.48;40.59;102146.31;4197583;28;20097;-62
2022/10/22 08:21:19;;;;;;;3.03;2.40;;;;;;;22.48;40.36;102161.09;4212272;28;20035;-62
2022/10/22 08:23:20;;;;;;;3.80;2.22;;;;;;;22.48;40.72;102152.72;4213986;28;20044;-62
2022/10/22 08:25:21;;;;;;;4.20;2.40;;;;;;;22.47;40.57;102155.78;4210071;28;20169;-62
2022/10/22 08:27:23;;;;;;;3.90;2.80;;;;;;;22.47;40.76;102158.56;4196794;28;20468;-62
2022/10/22 08:29:28;;;;;;;3.38;2.47;;;;;;;22.46;40.83;102160.53;4197382;28;20036;-62
2022/10/22 08:31:29;;;;;;;;;;;;;;;22.45;40.95;102155.19;4196517;28;20110;-61
2022/10/22 08:33:33;;;;;;;2.50;2.28;;;;;;;22.52;40.46;102167.00;4197434;28;20466;-62
2022/10/22 08:35:34;;;;;;;3.42;2.55;;;;;;;22.51;40.72;102170.88;4196117;28;20093;-62
2022/10/22 08:37:36;;;;;;;2.83;2.15;;;;;;;22.50;40.66;102172.00;4197567;28;20060;-62
2022/10/22 08:39:40;;;;;;;2.72;2.20;;;;;;;22.44;40.89;102161.88;4190466;28;20041;-62
2022/10/22 08:42:03;;;;;;;2.40;2.17;;;;;;;22.45;40.61;102169.13;4197064;28;20070;-61
2022/10/22 08:44:24;;;;;;;4.22;2.50;;;;;;;22.39;40.51;102153.44;4196830;28;20040;-61
2022/10/22 08:46:44;;;;;;;4.47;2.47;;;;;;;22.47;40.76;102169.72;4195789;28;20098;-61
2022/10/22 08:48:47;;;;;;;3.03;2.40;;;;;;;22.47;40.54;102175.31;4197022;28;20048;-61
2022/10/22 08:50:53;;;;;;;4.88;2.55;;;;;;;22.45;40.59;102181.16;4196933;28;20055;-61
2022/10/22 08:53:01;;;;;;;3.70;2.33;;;;;;;22.43;40.90;102176.94;4196302;28;20398;-62
2022/10/22 08:55:03;;;;;;;2.75;2.15;;;;;;;22.45;41.06;102185.88;4196894;28;20048;-61
2022/10/22 08:57:07;;;;;;;3.28;2.42;;;;;;;22.44;40.44;102181.41;4197017;28;20110;-61
2022/10/22 08:59:16;;;;;;;2.65;2.13;;;;;;;22.42;40.57;102197.56;4197459;28;20048;-61
2022/10/22 09:01:32;;;;;;;3.97;2.63;;;;;;;22.44;40.52;102192.56;4196973;28;20097;-61
2022/10/22 09:03:56;;;;;;;3.33;2.35;;;;;;;22.41;40.87;102190.31;4196145;28;20435;-62
2022/10/22 09:06:09;;;;;;;2.90;2.53;;;;;;;22.43;41.04;102193.66;4196206;28;20040;-62
2022/10/22 09:08:13;;;;;;;3.08;2.42;;;;;;;22.43;40.80;102204.81;4196699;28;20078;-61
2022/10/22 09:10:21;;;;;;;3.53;2.60;;;;;;;22.39;40.76;102198.91;4196106;28;20546;-61
2022/10/22 09:12:26;;;;;;;3.33;2.75;;;;;;;22.40;40.79;102195.00;4197180;28;20044;-62
2022/10/22 09:14:30;;;;;;;3.83;2.60;;;;;;;22.22;40.90;102176.69;4196281;28;20036;-61
2022/10/22 09:16:56;;;;;;;2.83;2.40;;;;;;;22.39;40.74;102210.06;4196132;28;20033;-62
2022/10/22 09:19:12;;;;;;;3.05;2.47;;;;;;;22.42;40.85;102212.34;4197222;28;20056;-61
2022/10/22 09:21:52;;;;;;;3.08;2.53;;;;;;;22.40;41.28;102227.66;4197363;28;20093;-61
2022/10/22 09:24:15;;;;;;;2.90;2.13;;;;;;;22.38;40.98;102229.88;4196959;28;20032;-61
2022/10/22 09:26:16;;;;;;;3.17;2.28;;;;;;;22.38;41.00;102224.28;4196611;28;20377;-62
2022/10/22 09:28:17;;;;;;;3.85;2.38;;;;;;;22.37;40.73;102222.59;4196136;28;20053;-61
2022/10/22 09:30:22;;;;;;;4.30;2.70;;;;;;;22.36;41.00;102232.06;4196316;28;20078;-61
2022/10/22 09:32:25;;;;;;;5.65;3.05;;;;;;;22.35;41.01;102219.22;4196065;28;20561;-61
2022/10/22 09:34:29;;;;;;;3.15;2.85;;;;;;;22.32;41.17;102221.44;4196966;28;20045;-61
2022/10/22 09:36:31;;;;;;;4.30;2.90;;;;;;;22.33;40.94;102223.13;4196387;28;20106;-61
2022/10/22 09:38:38;;;;;;;4.18;2.42;;;;;;;22.32;41.18;102232.59;4197030;28;20037;-61
2022/10/22 09:40:46;;;;;;;3.55;2.47;;;;;;;22.32;41.38;102246.53;4195998;28;20045;-61